sensor_id;sensor_type;location;lat;lon;timestamp;P1;durP1;ratioP1;P2;durP2;ratioP2
422;SDS011;198;48.752;9.180;2024-03-07T00:02:10;52.73;;;20.83;;
422;SDS011;198;48.752;9.180;2024-03-07T00:04:35;49.40;;;20.87;;
422;SDS011;198;48.752;9.180;2024-03-07T00:07:02;46.67;;;20.03;;
422;SDS011;198;48.752;9.180;2024-03-07T00:09:29;57.57;;;21.60;;
422;SDS011;198;48.752;9.180;2024-03-07T00:11:56;48.83;;;20.10;;
422;SDS011;198;48.752;9.180;2024-03-07T00:14:22;45.97;;;19.50;;
422;SDS011;198;48.752;9.180;2024-03-07T00:16:51;57.57;;;22.30;;
422;SDS011;198;48.752;9.180;2024-03-07T00:19:20;50.87;;;19.47;;
422;SDS011;198;48.752;9.180;2024-03-07T00:21:46;56.77;;;22.43;;
422;SDS011;198;48.752;9.180;2024-03-07T00:24:12;57.17;;;20.90;;
422;SDS011;198;48.752;9.180;2024-03-07T00:26:38;59.37;;;24.13;;
422;SDS011;198;48.752;9.180;2024-03-07T00:29:05;58.10;;;23.63;;
422;SDS011;198;48.752;9.180;2024-03-07T00:31:31;64.27;;;23.07;;
422;SDS011;198;48.752;9.180;2024-03-07T00:33:57;63.10;;;22.17;;
422;SDS011;198;48.752;9.180;2024-03-07T00:36:23;76.93;;;27.30;;
422;SDS011;198;48.752;9.180;2024-03-07T00:38:49;56.57;;;22.33;;
422;SDS011;198;48.752;9.180;2024-03-07T00:41:15;71.43;;;26.40;;
422;SDS011;198;48.752;9.180;2024-03-07T00:43:42;63.37;;;25.67;;
422;SDS011;198;48.752;9.180;2024-03-07T00:46:07;56.13;;;23.73;;
422;SDS011;198;48.752;9.180;2024-03-07T00:48:33;55.73;;;22.40;;
422;SDS011;198;48.752;9.180;2024-03-07T00:50:59;63.43;;;24.47;;
422;SDS011;198;48.752;9.180;2024-03-07T00:53:24;63.00;;;24.80;;
422;SDS011;198;48.752;9.180;2024-03-07T00:55:50;56.07;;;23.40;;
422;SDS011;198;48.752;9.180;2024-03-07T00:58:16;61.30;;;24.57;;
422;SDS011;198;48.752;9.180;2024-03-07T01:00:41;70.33;;;25.60;;
422;SDS011;198;48.752;9.180;2024-03-07T01:03:08;59.93;;;22.57;;
422;SDS011;198;48.752;9.180;2024-03-07T01:05:38;60.93;;;24.23;;
422;SDS011;198;48.752;9.180;2024-03-07T01:08:04;59.13;;;25.60;;
422;SDS011;198;48.752;9.180;2024-03-07T01:10:30;71.20;;;23.77;;
422;SDS011;198;48.752;9.180;2024-03-07T01:12:56;70.13;;;25.77;;
422;SDS011;198;48.752;9.180;2024-03-07T01:15:26;64.53;;;27.37;;
422;SDS011;198;48.752;9.180;2024-03-07T01:17:51;81.13;;;27.40;;
422;SDS011;198;48.752;9.180;2024-03-07T01:20:17;65.47;;;25.00;;
422;SDS011;198;48.752;9.180;2024-03-07T01:22:43;67.43;;;25.43;;
422;SDS011;198;48.752;9.180;2024-03-07T01:25:09;68.77;;;27.90;;
422;SDS011;198;48.752;9.180;2024-03-07T01:27:34;60.40;;;24.97;;
422;SDS011;198;48.752;9.180;2024-03-07T01:30:00;69.30;;;26.80;;
422;SDS011;198;48.752;9.180;2024-03-07T01:32:26;63.43;;;26.30;;
422;SDS011;198;48.752;9.180;2024-03-07T01:34:52;57.80;;;25.53;;
422;SDS011;198;48.752;9.180;2024-03-07T01:37:18;67.80;;;26.07;;
422;SDS011;198;48.752;9.180;2024-03-07T01:39:43;65.43;;;25.73;;
422;SDS011;198;48.752;9.180;2024-03-07T01:42:09;67.90;;;26.80;;
422;SDS011;198;48.752;9.180;2024-03-07T01:44:34;59.90;;;24.80;;
422;SDS011;198;48.752;9.180;2024-03-07T01:47:00;65.13;;;24.80;;
422;SDS011;198;48.752;9.180;2024-03-07T01:49:29;72.60;;;26.80;;
422;SDS011;198;48.752;9.180;2024-03-07T01:51:55;55.27;;;23.53;;
422;SDS011;198;48.752;9.180;2024-03-07T01:54:22;63.67;;;28.47;;
422;SDS011;198;48.752;9.180;2024-03-07T01:56:48;65.23;;;23.57;;
422;SDS011;198;48.752;9.180;2024-03-07T01:59:14;69.50;;;26.10;;
422;SDS011;198;48.752;9.180;2024-03-07T02:01:41;66.50;;;25.10;;
422;SDS011;198;48.752;9.180;2024-03-07T02:04:08;54.90;;;24.67;;
422;SDS011;198;48.752;9.180;2024-03-07T02:06:33;66.83;;;25.20;;
422;SDS011;198;48.752;9.180;2024-03-07T02:08:59;66.40;;;25.17;;
422;SDS011;198;48.752;9.180;2024-03-07T02:11:26;59.90;;;25.60;;
422;SDS011;198;48.752;9.180;2024-03-07T02:13:52;63.73;;;23.80;;
422;SDS011;198;48.752;9.180;2024-03-07T02:16:17;61.37;;;24.73;;
422;SDS011;198;48.752;9.180;2024-03-07T02:18:43;63.83;;;24.63;;
422;SDS011;198;48.752;9.180;2024-03-07T02:21:09;60.10;;;21.80;;
422;SDS011;198;48.752;9.180;2024-03-07T02:23:36;57.87;;;23.07;;
422;SDS011;198;48.752;9.180;2024-03-07T02:26:02;61.63;;;24.67;;
422;SDS011;198;48.752;9.180;2024-03-07T02:28:29;57.73;;;21.30;;
422;SDS011;198;48.752;9.180;2024-03-07T02:30:54;64.47;;;25.87;;
422;SDS011;198;48.752;9.180;2024-03-07T02:33:20;61.07;;;23.57;;
422;SDS011;198;48.752;9.180;2024-03-07T02:35:45;57.17;;;22.27;;
422;SDS011;198;48.752;9.180;2024-03-07T02:38:11;60.80;;;24.10;;
422;SDS011;198;48.752;9.180;2024-03-07T02:40:36;54.10;;;22.73;;
422;SDS011;198;48.752;9.180;2024-03-07T02:43:02;68.57;;;22.20;;
422;SDS011;198;48.752;9.180;2024-03-07T02:45:30;57.67;;;20.43;;
422;SDS011;198;48.752;9.180;2024-03-07T02:47:56;53.30;;;22.67;;
422;SDS011;198;48.752;9.180;2024-03-07T02:50:21;53.13;;;22.83;;
422;SDS011;198;48.752;9.180;2024-03-07T02:52:47;58.33;;;23.60;;
422;SDS011;198;48.752;9.180;2024-03-07T02:55:14;61.90;;;23.10;;
422;SDS011;198;48.752;9.180;2024-03-07T02:57:40;62.10;;;22.97;;
422;SDS011;198;48.752;9.180;2024-03-07T03:00:06;59.03;;;23.53;;
422;SDS011;198;48.752;9.180;2024-03-07T03:02:44;61.80;;;24.13;;
422;SDS011;198;48.752;9.180;2024-03-07T03:05:12;63.57;;;24.90;;
422;SDS011;198;48.752;9.180;2024-03-07T03:07:39;55.10;;;22.70;;
422;SDS011;198;48.752;9.180;2024-03-07T03:10:04;58.13;;;23.07;;
422;SDS011;198;48.752;9.180;2024-03-07T03:12:34;67.73;;;24.50;;
422;SDS011;198;48.752;9.180;2024-03-07T03:15:03;57.80;;;24.20;;
422;SDS011;198;48.752;9.180;2024-03-07T03:17:31;79.13;;;27.70;;
422;SDS011;198;48.752;9.180;2024-03-07T03:19:57;58.37;;;23.47;;
422;SDS011;198;48.752;9.180;2024-03-07T03:22:22;68.57;;;25.63;;
422;SDS011;198;48.752;9.180;2024-03-07T03:24:48;61.93;;;23.30;;
422;SDS011;198;48.752;9.180;2024-03-07T03:27:13;67.63;;;25.27;;
422;SDS011;198;48.752;9.180;2024-03-07T03:29:39;62.67;;;24.20;;
422;SDS011;198;48.752;9.180;2024-03-07T03:32:05;68.37;;;25.90;;
422;SDS011;198;48.752;9.180;2024-03-07T03:34:32;63.57;;;24.40;;
422;SDS011;198;48.752;9.180;2024-03-07T03:36:58;58.50;;;24.00;;
422;SDS011;198;48.752;9.180;2024-03-07T03:39:24;75.07;;;26.40;;
422;SDS011;198;48.752;9.180;2024-03-07T03:41:51;71.57;;;27.50;;
422;SDS011;198;48.752;9.180;2024-03-07T03:44:18;78.43;;;28.90;;
422;SDS011;198;48.752;9.180;2024-03-07T03:46:44;72.27;;;29.53;;
422;SDS011;198;48.752;9.180;2024-03-07T03:49:09;84.93;;;30.70;;
422;SDS011;198;48.752;9.180;2024-03-07T03:51:35;89.63;;;28.90;;
422;SDS011;198;48.752;9.180;2024-03-07T03:54:01;63.07;;;25.90;;
422;SDS011;198;48.752;9.180;2024-03-07T03:56:26;77.80;;;28.80;;
422;SDS011;198;48.752;9.180;2024-03-07T03:58:52;82.70;;;31.30;;
422;SDS011;198;48.752;9.180;2024-03-07T04:01:18;75.03;;;27.97;;
422;SDS011;198;48.752;9.180;2024-03-07T04:03:43;88.67;;;32.23;;
422;SDS011;198;48.752;9.180;2024-03-07T04:06:11;75.77;;;29.47;;
422;SDS011;198;48.752;9.180;2024-03-07T04:08:37;79.00;;;30.77;;
422;SDS011;198;48.752;9.180;2024-03-07T04:11:03;79.23;;;29.70;;
422;SDS011;198;48.752;9.180;2024-03-07T04:13:29;74.83;;;28.83;;
422;SDS011;198;48.752;9.180;2024-03-07T04:15:55;75.63;;;29.80;;
422;SDS011;198;48.752;9.180;2024-03-07T04:18:21;71.20;;;28.60;;
422;SDS011;198;48.752;9.180;2024-03-07T04:20:47;81.80;;;29.50;;
422;SDS011;198;48.752;9.180;2024-03-07T04:23:13;70.87;;;27.00;;
422;SDS011;198;48.752;9.180;2024-03-07T04:25:38;73.30;;;28.60;;
422;SDS011;198;48.752;9.180;2024-03-07T04:28:04;79.93;;;29.20;;
422;SDS011;198;48.752;9.180;2024-03-07T04:30:30;70.23;;;28.27;;
422;SDS011;198;48.752;9.180;2024-03-07T04:32:55;78.23;;;28.97;;
422;SDS011;198;48.752;9.180;2024-03-07T04:35:23;73.10;;;28.00;;
422;SDS011;198;48.752;9.180;2024-03-07T04:37:49;83.87;;;29.80;;
422;SDS011;198;48.752;9.180;2024-03-07T04:40:15;76.37;;;28.00;;
422;SDS011;198;48.752;9.180;2024-03-07T04:42:43;77.70;;;28.60;;
422;SDS011;198;48.752;9.180;2024-03-07T04:45:10;72.80;;;28.43;;
422;SDS011;198;48.752;9.180;2024-03-07T04:47:38;71.97;;;27.60;;
422;SDS011;198;48.752;9.180;2024-03-07T04:50:05;72.50;;;26.77;;
422;SDS011;198;48.752;9.180;2024-03-07T04:52:30;71.20;;;28.60;;
422;SDS011;198;48.752;9.180;2024-03-07T04:54:56;73.80;;;28.17;;
422;SDS011;198;48.752;9.180;2024-03-07T04:57:21;61.60;;;23.20;;
422;SDS011;198;48.752;9.180;2024-03-07T04:59:47;74.13;;;28.30;;
422;SDS011;198;48.752;9.180;2024-03-07T05:02:13;65.27;;;25.97;;
422;SDS011;198;48.752;9.180;2024-03-07T05:04:38;63.73;;;24.90;;
422;SDS011;198;48.752;9.180;2024-03-07T05:07:04;66.77;;;27.20;;
422;SDS011;198;48.752;9.180;2024-03-07T05:09:30;56.47;;;22.60;;
422;SDS011;198;48.752;9.180;2024-03-07T05:11:58;57.67;;;22.60;;
422;SDS011;198;48.752;9.180;2024-03-07T05:14:24;70.43;;;23.53;;
422;SDS011;198;48.752;9.180;2024-03-07T05:16:52;58.00;;;21.90;;
422;SDS011;198;48.752;9.180;2024-03-07T05:19:33;62.17;;;24.53;;
422;SDS011;198;48.752;9.180;2024-03-07T05:21:59;60.60;;;23.77;;
422;SDS011;198;48.752;9.180;2024-03-07T05:24:25;66.37;;;24.63;;
422;SDS011;198;48.752;9.180;2024-03-07T05:26:50;73.10;;;24.10;;
422;SDS011;198;48.752;9.180;2024-03-07T05:29:17;76.70;;;25.37;;
422;SDS011;198;48.752;9.180;2024-03-07T05:31:43;66.83;;;25.53;;
422;SDS011;198;48.752;9.180;2024-03-07T05:34:17;59.67;;;24.10;;
422;SDS011;198;48.752;9.180;2024-03-07T05:36:48;62.47;;;24.27;;
422;SDS011;198;48.752;9.180;2024-03-07T05:39:14;68.50;;;24.43;;
422;SDS011;198;48.752;9.180;2024-03-07T05:41:42;63.43;;;25.07;;
422;SDS011;198;48.752;9.180;2024-03-07T05:44:10;67.60;;;26.10;;
422;SDS011;198;48.752;9.180;2024-03-07T05:46:39;59.57;;;24.23;;
422;SDS011;198;48.752;9.180;2024-03-07T05:49:13;62.30;;;24.57;;
422;SDS011;198;48.752;9.180;2024-03-07T05:51:39;67.37;;;26.10;;
422;SDS011;198;48.752;9.180;2024-03-07T05:54:07;75.27;;;26.97;;
422;SDS011;198;48.752;9.180;2024-03-07T05:56:34;61.33;;;23.60;;
422;SDS011;198;48.752;9.180;2024-03-07T05:59:02;62.97;;;25.00;;
422;SDS011;198;48.752;9.180;2024-03-07T06:01:35;66.90;;;23.93;;
422;SDS011;198;48.752;9.180;2024-03-07T06:04:04;73.30;;;25.07;;
422;SDS011;198;48.752;9.180;2024-03-07T06:06:31;69.63;;;27.03;;
422;SDS011;198;48.752;9.180;2024-03-07T06:09:04;63.90;;;24.50;;
422;SDS011;198;48.752;9.180;2024-03-07T06:11:37;65.90;;;25.27;;
422;SDS011;198;48.752;9.180;2024-03-07T06:14:03;83.07;;;30.37;;
422;SDS011;198;48.752;9.180;2024-03-07T06:16:30;66.97;;;26.10;;
422;SDS011;198;48.752;9.180;2024-03-07T06:18:58;71.70;;;27.17;;
422;SDS011;198;48.752;9.180;2024-03-07T06:21:27;78.30;;;27.00;;
422;SDS011;198;48.752;9.180;2024-03-07T06:23:55;72.03;;;27.53;;
422;SDS011;198;48.752;9.180;2024-03-07T06:26:31;73.27;;;27.77;;
422;SDS011;198;48.752;9.180;2024-03-07T06:29:06;76.13;;;28.93;;
422;SDS011;198;48.752;9.180;2024-03-07T06:31:33;79.23;;;29.97;;
422;SDS011;198;48.752;9.180;2024-03-07T06:33:59;71.57;;;26.67;;
422;SDS011;198;48.752;9.180;2024-03-07T06:36:25;71.67;;;26.77;;
422;SDS011;198;48.752;9.180;2024-03-07T06:38:51;72.73;;;27.90;;
422;SDS011;198;48.752;9.180;2024-03-07T06:41:16;75.47;;;27.90;;
422;SDS011;198;48.752;9.180;2024-03-07T06:43:43;74.73;;;28.77;;
422;SDS011;198;48.752;9.180;2024-03-07T06:46:09;83.70;;;29.40;;
422;SDS011;198;48.752;9.180;2024-03-07T06:48:35;77.73;;;30.67;;
422;SDS011;198;48.752;9.180;2024-03-07T06:51:00;70.57;;;28.63;;
422;SDS011;198;48.752;9.180;2024-03-07T06:53:26;68.17;;;29.00;;
422;SDS011;198;48.752;9.180;2024-03-07T06:55:53;71.87;;;29.03;;
422;SDS011;198;48.752;9.180;2024-03-07T06:58:22;77.60;;;27.90;;
422;SDS011;198;48.752;9.180;2024-03-07T07:00:48;64.73;;;27.17;;
422;SDS011;198;48.752;9.180;2024-03-07T07:03:16;66.27;;;25.70;;
422;SDS011;198;48.752;9.180;2024-03-07T07:05:45;72.93;;;26.70;;
422;SDS011;198;48.752;9.180;2024-03-07T07:08:11;60.00;;;24.73;;
422;SDS011;198;48.752;9.180;2024-03-07T07:10:38;79.20;;;27.13;;
422;SDS011;198;48.752;9.180;2024-03-07T07:13:05;69.43;;;27.40;;
422;SDS011;198;48.752;9.180;2024-03-07T07:15:31;65.93;;;26.40;;
422;SDS011;198;48.752;9.180;2024-03-07T07:17:57;63.30;;;25.03;;
422;SDS011;198;48.752;9.180;2024-03-07T07:20:24;69.77;;;25.00;;
422;SDS011;198;48.752;9.180;2024-03-07T07:22:49;60.47;;;24.50;;
422;SDS011;198;48.752;9.180;2024-03-07T07:25:16;54.77;;;21.47;;
422;SDS011;198;48.752;9.180;2024-03-07T07:27:45;58.17;;;23.07;;
422;SDS011;198;48.752;9.180;2024-03-07T07:30:15;61.20;;;22.43;;
422;SDS011;198;48.752;9.180;2024-03-07T07:32:46;48.13;;;20.63;;
422;SDS011;198;48.752;9.180;2024-03-07T07:35:12;51.73;;;21.80;;
422;SDS011;198;48.752;9.180;2024-03-07T07:37:44;48.03;;;20.30;;
422;SDS011;198;48.752;9.180;2024-03-07T07:40:12;43.30;;;19.90;;
422;SDS011;198;48.752;9.180;2024-03-07T07:42:43;40.37;;;18.43;;
422;SDS011;198;48.752;9.180;2024-03-07T07:45:11;62.87;;;23.50;;
422;SDS011;198;48.752;9.180;2024-03-07T07:47:41;56.80;;;21.53;;
422;SDS011;198;48.752;9.180;2024-03-07T07:50:09;55.23;;;23.53;;
422;SDS011;198;48.752;9.180;2024-03-07T07:55:34;59.43;;;24.60;;
422;SDS011;198;48.752;9.180;2024-03-07T07:57:59;70.73;;;22.23;;
422;SDS011;198;48.752;9.180;2024-03-07T08:00:29;54.63;;;23.30;;
422;SDS011;198;48.752;9.180;2024-03-07T08:05:23;53.23;;;22.90;;
422;SDS011;198;48.752;9.180;2024-03-07T08:07:50;50.53;;;21.10;;
422;SDS011;198;48.752;9.180;2024-03-07T08:10:16;53.83;;;23.13;;
422;SDS011;198;48.752;9.180;2024-03-07T08:12:43;52.13;;;21.07;;
422;SDS011;198;48.752;9.180;2024-03-07T08:15:09;59.30;;;20.70;;
422;SDS011;198;48.752;9.180;2024-03-07T08:17:38;51.53;;;22.40;;
422;SDS011;198;48.752;9.180;2024-03-07T08:20:14;54.70;;;23.57;;
422;SDS011;198;48.752;9.180;2024-03-07T08:22:41;50.50;;;20.60;;
422;SDS011;198;48.752;9.180;2024-03-07T08:25:09;52.07;;;19.97;;
422;SDS011;198;48.752;9.180;2024-03-07T08:27:35;43.23;;;20.00;;
422;SDS011;198;48.752;9.180;2024-03-07T08:30:02;45.00;;;20.53;;
422;SDS011;198;48.752;9.180;2024-03-07T08:32:31;46.27;;;18.73;;
422;SDS011;198;48.752;9.180;2024-03-07T08:34:59;44.57;;;20.43;;
422;SDS011;198;48.752;9.180;2024-03-07T08:37:26;37.43;;;17.83;;
422;SDS011;198;48.752;9.180;2024-03-07T08:39:52;42.30;;;16.90;;
422;SDS011;198;48.752;9.180;2024-03-07T08:42:17;44.87;;;20.10;;
422;SDS011;198;48.752;9.180;2024-03-07T08:44:43;43.63;;;19.57;;
422;SDS011;198;48.752;9.180;2024-03-07T08:47:08;40.87;;;19.40;;
422;SDS011;198;48.752;9.180;2024-03-07T08:49:35;42.57;;;19.47;;
422;SDS011;198;48.752;9.180;2024-03-07T08:52:00;40.00;;;18.23;;
422;SDS011;198;48.752;9.180;2024-03-07T08:54:26;39.77;;;17.83;;
422;SDS011;198;48.752;9.180;2024-03-07T08:56:52;41.73;;;18.33;;
422;SDS011;198;48.752;9.180;2024-03-07T08:59:17;47.63;;;17.90;;
422;SDS011;198;48.752;9.180;2024-03-07T09:01:49;43.03;;;18.40;;
422;SDS011;198;48.752;9.180;2024-03-07T09:04:15;54.03;;;19.50;;
422;SDS011;198;48.752;9.180;2024-03-07T09:06:42;39.47;;;17.43;;
422;SDS011;198;48.752;9.180;2024-03-07T09:09:09;47.60;;;19.20;;
422;SDS011;198;48.752;9.180;2024-03-07T09:11:35;45.10;;;18.97;;
422;SDS011;198;48.752;9.180;2024-03-07T09:14:01;46.33;;;19.83;;
422;SDS011;198;48.752;9.180;2024-03-07T09:16:27;45.00;;;19.87;;
422;SDS011;198;48.752;9.180;2024-03-07T09:18:53;54.03;;;23.07;;
422;SDS011;198;48.752;9.180;2024-03-07T09:21:20;53.40;;;21.10;;
422;SDS011;198;48.752;9.180;2024-03-07T09:23:45;42.70;;;18.90;;
422;SDS011;198;48.752;9.180;2024-03-07T09:26:11;51.07;;;20.43;;
422;SDS011;198;48.752;9.180;2024-03-07T09:28:36;48.03;;;18.37;;
422;SDS011;198;48.752;9.180;2024-03-07T09:31:01;47.53;;;19.27;;
422;SDS011;198;48.752;9.180;2024-03-07T09:33:27;44.67;;;20.17;;
422;SDS011;198;48.752;9.180;2024-03-07T09:35:53;46.90;;;20.30;;
422;SDS011;198;48.752;9.180;2024-03-07T09:38:18;49.57;;;18.60;;
422;SDS011;198;48.752;9.180;2024-03-07T09:40:43;40.23;;;17.60;;
422;SDS011;198;48.752;9.180;2024-03-07T09:43:12;36.60;;;18.00;;
422;SDS011;198;48.752;9.180;2024-03-07T09:45:38;46.10;;;19.33;;
422;SDS011;198;48.752;9.180;2024-03-07T09:48:05;44.90;;;20.10;;
422;SDS011;198;48.752;9.180;2024-03-07T09:50:34;49.10;;;20.83;;
422;SDS011;198;48.752;9.180;2024-03-07T09:53:00;47.87;;;20.33;;
422;SDS011;198;48.752;9.180;2024-03-07T09:55:29;39.63;;;16.80;;
422;SDS011;198;48.752;9.180;2024-03-07T09:57:56;39.50;;;16.40;;
422;SDS011;198;48.752;9.180;2024-03-07T10:00:25;40.90;;;17.83;;
422;SDS011;198;48.752;9.180;2024-03-07T10:05:27;43.13;;;17.30;;
422;SDS011;198;48.752;9.180;2024-03-07T10:07:53;41.50;;;17.87;;
422;SDS011;198;48.752;9.180;2024-03-07T10:10:21;46.50;;;18.10;;
422;SDS011;198;48.752;9.180;2024-03-07T10:12:47;40.93;;;17.97;;
422;SDS011;198;48.752;9.180;2024-03-07T10:15:14;41.23;;;18.37;;
422;SDS011;198;48.752;9.180;2024-03-07T10:17:42;38.53;;;15.97;;
422;SDS011;198;48.752;9.180;2024-03-07T10:20:09;38.50;;;16.20;;
422;SDS011;198;48.752;9.180;2024-03-07T10:22:38;36.87;;;15.87;;
422;SDS011;198;48.752;9.180;2024-03-07T10:25:06;31.00;;;15.53;;
422;SDS011;198;48.752;9.180;2024-03-07T10:27:31;46.13;;;18.77;;
422;SDS011;198;48.752;9.180;2024-03-07T10:30:00;42.43;;;16.73;;
422;SDS011;198;48.752;9.180;2024-03-07T10:32:26;42.00;;;18.73;;
422;SDS011;198;48.752;9.180;2024-03-07T10:34:52;46.30;;;18.77;;
422;SDS011;198;48.752;9.180;2024-03-07T10:37:18;42.10;;;16.43;;
422;SDS011;198;48.752;9.180;2024-03-07T10:39:49;44.20;;;18.80;;
422;SDS011;198;48.752;9.180;2024-03-07T10:42:14;50.00;;;19.30;;
422;SDS011;198;48.752;9.180;2024-03-07T10:44:45;42.93;;;18.10;;
422;SDS011;198;48.752;9.180;2024-03-07T10:47:18;43.77;;;17.43;;
422;SDS011;198;48.752;9.180;2024-03-07T10:49:59;40.23;;;17.40;;
422;SDS011;198;48.752;9.180;2024-03-07T10:52:40;48.73;;;20.20;;
422;SDS011;198;48.752;9.180;2024-03-07T10:55:18;39.97;;;17.83;;
422;SDS011;198;48.752;9.180;2024-03-07T10:58:02;44.03;;;17.80;;
422;SDS011;198;48.752;9.180;2024-03-07T11:00:37;37.93;;;16.77;;
422;SDS011;198;48.752;9.180;2024-03-07T11:03:10;36.70;;;16.30;;
422;SDS011;198;48.752;9.180;2024-03-07T11:05:36;35.67;;;16.60;;
422;SDS011;198;48.752;9.180;2024-03-07T11:08:02;43.27;;;17.13;;
422;SDS011;198;48.752;9.180;2024-03-07T11:10:36;39.13;;;17.07;;
422;SDS011;198;48.752;9.180;2024-03-07T11:13:03;32.40;;;14.70;;
422;SDS011;198;48.752;9.180;2024-03-07T11:15:30;40.63;;;16.50;;
422;SDS011;198;48.752;9.180;2024-03-07T11:17:58;48.57;;;18.57;;
422;SDS011;198;48.752;9.180;2024-03-07T11:20:24;45.00;;;19.50;;
422;SDS011;198;48.752;9.180;2024-03-07T11:22:51;45.03;;;17.37;;
422;SDS011;198;48.752;9.180;2024-03-07T11:25:21;41.73;;;18.33;;
422;SDS011;198;48.752;9.180;2024-03-07T11:27:56;38.23;;;15.40;;
422;SDS011;198;48.752;9.180;2024-03-07T11:30:23;48.80;;;19.20;;
422;SDS011;198;48.752;9.180;2024-03-07T11:32:50;35.63;;;14.00;;
422;SDS011;198;48.752;9.180;2024-03-07T11:35:18;35.13;;;14.97;;
422;SDS011;198;48.752;9.180;2024-03-07T11:37:57;32.70;;;15.10;;
422;SDS011;198;48.752;9.180;2024-03-07T11:42:50;46.07;;;18.67;;
422;SDS011;198;48.752;9.180;2024-03-07T11:45:18;44.80;;;19.97;;
422;SDS011;198;48.752;9.180;2024-03-07T11:47:54;35.60;;;15.07;;
422;SDS011;198;48.752;9.180;2024-03-07T11:50:33;40.00;;;19.87;;
422;SDS011;198;48.752;9.180;2024-03-07T11:53:02;36.00;;;14.60;;
422;SDS011;198;48.752;9.180;2024-03-07T11:55:31;42.03;;;19.20;;
422;SDS011;198;48.752;9.180;2024-03-07T11:58:15;42.83;;;16.73;;
422;SDS011;198;48.752;9.180;2024-03-07T12:00:42;38.10;;;17.73;;
422;SDS011;198;48.752;9.180;2024-03-07T12:03:12;52.50;;;21.97;;
422;SDS011;198;48.752;9.180;2024-03-07T12:05:47;39.13;;;15.90;;
422;SDS011;198;48.752;9.180;2024-03-07T12:08:14;35.97;;;16.20;;
422;SDS011;198;48.752;9.180;2024-03-07T12:10:40;45.70;;;18.07;;
422;SDS011;198;48.752;9.180;2024-03-07T12:13:10;42.30;;;17.60;;
422;SDS011;198;48.752;9.180;2024-03-07T12:15:38;34.97;;;16.70;;
422;SDS011;198;48.752;9.180;2024-03-07T12:18:04;50.40;;;22.40;;
422;SDS011;198;48.752;9.180;2024-03-07T12:20:37;46.70;;;19.10;;
422;SDS011;198;48.752;9.180;2024-03-07T12:23:04;41.60;;;17.70;;
422;SDS011;198;48.752;9.180;2024-03-07T12:25:33;40.27;;;17.60;;
422;SDS011;198;48.752;9.180;2024-03-07T12:28:03;48.27;;;20.13;;
422;SDS011;198;48.752;9.180;2024-03-07T12:30:31;56.13;;;21.93;;
422;SDS011;198;48.752;9.180;2024-03-07T12:33:01;43.47;;;18.43;;
422;SDS011;198;48.752;9.180;2024-03-07T12:35:29;39.27;;;18.77;;
422;SDS011;198;48.752;9.180;2024-03-07T12:37:56;48.53;;;19.90;;
422;SDS011;198;48.752;9.180;2024-03-07T12:40:22;48.23;;;20.47;;
422;SDS011;198;48.752;9.180;2024-03-07T12:42:51;47.57;;;18.40;;
422;SDS011;198;48.752;9.180;2024-03-07T12:45:18;41.43;;;17.10;;
422;SDS011;198;48.752;9.180;2024-03-07T12:47:46;51.70;;;21.00;;
422;SDS011;198;48.752;9.180;2024-03-07T12:50:15;36.27;;;16.40;;
422;SDS011;198;48.752;9.180;2024-03-07T12:52:41;47.87;;;20.47;;
422;SDS011;198;48.752;9.180;2024-03-07T12:55:07;55.13;;;22.10;;
422;SDS011;198;48.752;9.180;2024-03-07T12:57:33;53.80;;;21.23;;
422;SDS011;198;48.752;9.180;2024-03-07T12:59:58;44.20;;;19.80;;
422;SDS011;198;48.752;9.180;2024-03-07T13:02:24;42.83;;;18.60;;
422;SDS011;198;48.752;9.180;2024-03-07T13:04:52;48.93;;;19.47;;
422;SDS011;198;48.752;9.180;2024-03-07T13:07:18;46.27;;;20.27;;
422;SDS011;198;48.752;9.180;2024-03-07T13:09:43;47.27;;;20.90;;
422;SDS011;198;48.752;9.180;2024-03-07T13:12:09;58.97;;;22.20;;
422;SDS011;198;48.752;9.180;2024-03-07T13:14:35;53.03;;;21.27;;
422;SDS011;198;48.752;9.180;2024-03-07T13:17:03;51.90;;;19.97;;
422;SDS011;198;48.752;9.180;2024-03-07T13:19:29;54.80;;;22.00;;
422;SDS011;198;48.752;9.180;2024-03-07T13:21:55;48.20;;;19.73;;
422;SDS011;198;48.752;9.180;2024-03-07T13:24:22;57.07;;;21.27;;
422;SDS011;198;48.752;9.180;2024-03-07T13:26:48;46.90;;;20.50;;
422;SDS011;198;48.752;9.180;2024-03-07T13:29:14;48.07;;;21.53;;
422;SDS011;198;48.752;9.180;2024-03-07T13:31:40;53.00;;;23.03;;
422;SDS011;198;48.752;9.180;2024-03-07T13:34:08;53.17;;;20.50;;
422;SDS011;198;48.752;9.180;2024-03-07T13:36:40;42.87;;;18.60;;
422;SDS011;198;48.752;9.180;2024-03-07T13:39:06;49.03;;;20.50;;
422;SDS011;198;48.752;9.180;2024-03-07T13:41:36;51.77;;;21.50;;
422;SDS011;198;48.752;9.180;2024-03-07T13:44:13;47.37;;;18.57;;
422;SDS011;198;48.752;9.180;2024-03-07T13:46:39;36.83;;;17.27;;
422;SDS011;198;48.752;9.180;2024-03-07T13:49:04;39.80;;;18.73;;
422;SDS011;198;48.752;9.180;2024-03-07T13:51:37;39.20;;;19.40;;
422;SDS011;198;48.752;9.180;2024-03-07T13:54:18;46.67;;;20.20;;
422;SDS011;198;48.752;9.180;2024-03-07T14:00:23;45.50;;;20.97;;
422;SDS011;198;48.752;9.180;2024-03-07T14:11:18;46.73;;;16.77;;
422;SDS011;198;48.752;9.180;2024-03-07T14:14:28;41.00;;;18.50;;
422;SDS011;198;48.752;9.180;2024-03-07T14:17:17;42.00;;;18.47;;
422;SDS011;198;48.752;9.180;2024-03-07T14:23:11;53.17;;;20.10;;
422;SDS011;198;48.752;9.180;2024-03-07T14:26:20;37.30;;;17.13;;
422;SDS011;198;48.752;9.180;2024-03-07T14:32:05;41.33;;;18.43;;
422;SDS011;198;48.752;9.180;2024-03-07T14:34:36;42.30;;;18.50;;
422;SDS011;198;48.752;9.180;2024-03-07T14:37:17;50.33;;;20.60;;
422;SDS011;198;48.752;9.180;2024-03-07T14:39:48;39.83;;;17.57;;
422;SDS011;198;48.752;9.180;2024-03-07T14:42:16;36.50;;;16.70;;
422;SDS011;198;48.752;9.180;2024-03-07T14:44:45;40.63;;;18.00;;
422;SDS011;198;48.752;9.180;2024-03-07T14:47:13;48.73;;;20.97;;
422;SDS011;198;48.752;9.180;2024-03-07T14:49:42;49.93;;;20.73;;
422;SDS011;198;48.752;9.180;2024-03-07T14:52:07;46.20;;;21.53;;
422;SDS011;198;48.752;9.180;2024-03-07T14:54:37;50.27;;;21.53;;
422;SDS011;198;48.752;9.180;2024-03-07T14:57:03;40.90;;;17.60;;
422;SDS011;198;48.752;9.180;2024-03-07T14:59:29;46.93;;;21.40;;
422;SDS011;198;48.752;9.180;2024-03-07T15:01:55;41.97;;;19.83;;
422;SDS011;198;48.752;9.180;2024-03-07T15:04:23;51.43;;;19.97;;
422;SDS011;198;48.752;9.180;2024-03-07T15:06:49;35.77;;;15.93;;
422;SDS011;198;48.752;9.180;2024-03-07T15:09:17;43.93;;;19.00;;
422;SDS011;198;48.752;9.180;2024-03-07T15:11:44;37.37;;;17.07;;
422;SDS011;198;48.752;9.180;2024-03-07T15:14:10;41.10;;;18.23;;
422;SDS011;198;48.752;9.180;2024-03-07T15:16:36;55.80;;;20.93;;
422;SDS011;198;48.752;9.180;2024-03-07T15:19:03;45.90;;;18.63;;
422;SDS011;198;48.752;9.180;2024-03-07T15:21:30;48.43;;;18.77;;
422;SDS011;198;48.752;9.180;2024-03-07T15:23:56;34.50;;;15.57;;
422;SDS011;198;48.752;9.180;2024-03-07T15:26:22;51.10;;;21.70;;
422;SDS011;198;48.752;9.180;2024-03-07T15:28:49;41.33;;;18.00;;
422;SDS011;198;48.752;9.180;2024-03-07T15:31:16;42.40;;;18.60;;
422;SDS011;198;48.752;9.180;2024-03-07T15:33:43;49.13;;;18.30;;
422;SDS011;198;48.752;9.180;2024-03-07T15:36:09;42.40;;;18.60;;
422;SDS011;198;48.752;9.180;2024-03-07T15:38:34;39.00;;;16.83;;
422;SDS011;198;48.752;9.180;2024-03-07T15:41:03;37.73;;;17.60;;
422;SDS011;198;48.752;9.180;2024-03-07T15:43:29;41.00;;;16.40;;
422;SDS011;198;48.752;9.180;2024-03-07T15:45:55;39.27;;;17.07;;
422;SDS011;198;48.752;9.180;2024-03-07T15:48:24;41.43;;;16.60;;